createdAt,value
2024-04-09T00:08:31.418Z,43.9
2024-04-09T00:23:32.573Z,44
2024-04-09T00:38:33.436Z,43.6
2024-04-09T00:53:30.772Z,43.7
2024-04-09T01:08:42.914Z,43.8
2024-04-09T01:23:41.581Z,44
2024-04-09T01:38:43.134Z,43.5
2024-04-09T01:53:40.504Z,43.8
2024-04-09T02:08:50.445Z,43.5
2024-04-09T02:23:52.802Z,43.9
2024-04-09T02:38:52.170Z,43.8
2024-04-09T02:53:50.809Z,44
2024-04-09T03:09:01.404Z,43.7
2024-04-09T03:24:02.686Z,43.5
2024-04-09T03:39:03.239Z,44.1
2024-04-09T03:54:01.160Z,43.6
2024-04-09T04:09:11.583Z,43.6
2024-04-09T04:24:12.768Z,43.2
2024-04-09T04:39:13.882Z,44.2
2024-04-09T04:54:11.495Z,43.7
2024-04-09T05:09:22.234Z,43.5
2024-04-09T05:24:23.452Z,43.9
2024-04-09T05:39:24.727Z,44.4
2024-04-09T05:54:24.050Z,43.5
2024-04-09T06:09:34.540Z,44.6
2024-04-09T06:24:35.803Z,44.4
2024-04-09T06:39:35.774Z,43.8
2024-04-09T07:54:41.983Z,44.2
2024-04-09T08:09:52.856Z,44.5
2024-04-09T08:24:53.189Z,44.4
2024-04-09T08:39:54.914Z,44.7
2024-04-09T08:54:52.402Z,44.7
2024-04-09T09:10:03.708Z,45
2024-04-09T09:25:03.964Z,45.9
2024-04-09T09:40:05.611Z,46.9
2024-04-09T09:55:09.678Z,48.2
2024-04-09T10:10:22.372Z,48.7
2024-04-09T10:25:23.660Z,48.9
2024-04-09T10:40:24.242Z,49.5
2024-04-09T10:55:13.394Z,49.9
2024-04-09T11:10:24.642Z,50.6
2024-04-09T11:25:27.019Z,48.9
2024-04-09T11:40:26.065Z,47.7
2024-04-09T11:55:26.775Z,48.1
2024-04-09T12:10:36.736Z,47.3
2024-04-09T12:25:38.175Z,46.5
2024-04-09T12:40:40.884Z,46.6
2024-04-09T12:55:36.318Z,46
2024-04-09T13:10:47.477Z,46.1
2024-04-09T13:25:48.234Z,46.9
2024-04-09T13:40:49.463Z,47.1
2024-04-09T13:55:46.474Z,46.6
2024-04-09T14:11:00.278Z,47.1
2024-04-09T14:25:57.957Z,47.1
2024-04-09T14:41:01.891Z,47.1
2024-04-09T14:55:56.670Z,47.8
2024-04-09T15:11:06.934Z,47.6
2024-04-09T15:26:08.077Z,48.9
2024-04-09T15:41:09.388Z,49.4
2024-04-09T15:56:04.107Z,50.5
2024-04-09T16:11:15.024Z,45.5
2024-04-09T16:26:16.032Z,44.9
2024-04-09T16:41:21.144Z,44.3
2024-04-09T16:56:13.685Z,44.4
2024-04-09T17:11:24.829Z,44.5
2024-04-09T17:26:24.673Z,44.2
2024-04-09T17:41:27.993Z,44.6
2024-04-09T17:56:23.815Z,44.3
2024-04-09T18:11:34.692Z,44.7
2024-04-09T18:26:34.914Z,44.5
2024-04-09T18:41:36.203Z,44.6
2024-04-09T18:56:34.289Z,44.7
2024-04-09T19:11:45.729Z,44.4
2024-04-09T19:26:46.477Z,43.7
2024-04-09T19:41:47.437Z,44.2
2024-04-09T19:56:44.296Z,44.4
2024-04-09T20:11:54.752Z,43.7
2024-04-09T20:26:55.730Z,44.2
2024-04-09T20:41:55.864Z,43.5
2024-04-09T20:56:55.090Z,43.9
2024-04-09T21:12:14.128Z,44.4
2024-04-09T21:27:14.716Z,44.4
2024-04-09T21:42:16.555Z,44.1
2024-04-09T21:57:04.534Z,44.5
2024-04-09T22:12:15.056Z,43.5
2024-04-09T22:27:16.259Z,43.9
2024-04-09T22:42:17.227Z,44.2
2024-04-09T22:57:14.722Z,43.7
2024-04-09T23:12:26.926Z,43.8
2024-04-09T23:27:26.392Z,44.1
2024-04-09T23:42:27.585Z,43.9
2024-04-09T23:57:24.656Z,44.1
